sensor_id;sensor_type;location;lat;lon;timestamp;pressure;altitude;pressure_sealevel;temperature;humidity
80188;BME280;73735;52.134;5.436;2024-01-30T00:00:25;102761.69;;;7.46;87.71
80188;BME280;73735;52.134;5.436;2024-01-30T00:02:51;102768.69;;;7.46;87.77
80188;BME280;73735;52.134;5.436;2024-01-30T00:05:18;102762.63;;;7.43;88.09
80188;BME280;73735;52.134;5.436;2024-01-30T00:07:44;102760.06;;;7.42;88.01
80188;BME280;73735;52.134;5.436;2024-01-30T00:10:11;102768.00;;;7.40;87.80
80188;BME280;73735;52.134;5.436;2024-01-30T00:12:37;102760.19;;;7.39;88.02
80188;BME280;73735;52.134;5.436;2024-01-30T00:15:04;102773.34;;;7.37;87.75
80188;BME280;73735;52.134;5.436;2024-01-30T00:17:31;102768.09;;;7.37;88.18
80188;BME280;73735;52.134;5.436;2024-01-30T00:19:57;102760.28;;;7.36;88.11
80188;BME280;73735;52.134;5.436;2024-01-30T00:22:24;102762.91;;;7.36;88.23
80188;BME280;73735;52.134;5.436;2024-01-30T00:24:50;102762.09;;;7.34;88.03
80188;BME280;73735;52.134;5.436;2024-01-30T00:27:17;102765.63;;;7.33;88.05
80188;BME280;73735;52.134;5.436;2024-01-30T00:29:43;102753.50;;;7.30;87.90
80188;BME280;73735;52.134;5.436;2024-01-30T00:32:10;102757.00;;;7.29;88.20
80188;BME280;73735;52.134;5.436;2024-01-30T00:34:36;102758.81;;;7.27;87.81
80188;BME280;73735;52.134;5.436;2024-01-30T00:37:03;102758.81;;;7.27;87.90
80188;BME280;73735;52.134;5.436;2024-01-30T00:39:30;102757.19;;;7.25;87.94
80188;BME280;73735;52.134;5.436;2024-01-30T00:41:56;102745.84;;;7.24;88.33
80188;BME280;73735;52.134;5.436;2024-01-30T00:44:23;102750.25;;;7.24;88.31
80188;BME280;73735;52.134;5.436;2024-01-30T00:46:49;102740.63;;;7.24;88.08
80188;BME280;73735;52.134;5.436;2024-01-30T00:49:16;102746.75;;;7.23;87.88
80188;BME280;73735;52.134;5.436;2024-01-30T00:51:42;102747.63;;;7.24;88.13
80188;BME280;73735;52.134;5.436;2024-01-30T00:54:09;102752.03;;;7.22;88.36
80188;BME280;73735;52.134;5.436;2024-01-30T00:56:35;102751.13;;;7.23;88.31
80188;BME280;73735;52.134;5.436;2024-01-30T00:59:02;102755.53;;;7.22;88.10
80188;BME280;73735;52.134;5.436;2024-01-30T01:01:28;102757.34;;;7.20;87.97
80188;BME280;73735;52.134;5.436;2024-01-30T01:03:55;102748.63;;;7.20;88.11
80188;BME280;73735;52.134;5.436;2024-01-30T01:06:21;102747.75;;;7.19;88.05
80188;BME280;73735;52.134;5.436;2024-01-30T01:08:48;102748.66;;;7.18;88.03
80188;BME280;73735;52.134;5.436;2024-01-30T01:11:15;102754.84;;;7.16;88.32
80188;BME280;73735;52.134;5.436;2024-01-30T01:13:41;102750.56;;;7.13;87.96
80188;BME280;73735;52.134;5.436;2024-01-30T01:16:07;102746.28;;;7.12;88.46
80188;BME280;73735;52.134;5.436;2024-01-30T01:18:34;102744.59;;;7.10;88.07
80188;BME280;73735;52.134;5.436;2024-01-30T01:21:00;102735.03;;;7.08;88.14
80188;BME280;73735;52.134;5.436;2024-01-30T01:23:27;102734.19;;;7.08;88.42
80188;BME280;73735;52.134;5.436;2024-01-30T01:25:53;102723.69;;;7.08;88.34
80188;BME280;73735;52.134;5.436;2024-01-30T01:28:24;102719.38;;;7.07;88.12
80188;BME280;73735;52.134;5.436;2024-01-30T01:30:50;102715.03;;;7.06;87.95
80188;BME280;73735;52.134;5.436;2024-01-30T01:33:17;102707.19;;;7.06;88.10
80188;BME280;73735;52.134;5.436;2024-01-30T01:35:44;102712.41;;;7.06;88.25
80188;BME280;73735;52.134;5.436;2024-01-30T01:38:10;102712.41;;;7.06;88.48
80188;BME280;73735;52.134;5.436;2024-01-30T01:40:37;102709.84;;;7.04;88.40
80188;BME280;73735;52.134;5.436;2024-01-30T01:43:06;102719.38;;;7.07;88.01
80188;BME280;73735;52.134;5.436;2024-01-30T01:45:32;102716.75;;;7.07;88.12
80188;BME280;73735;52.134;5.436;2024-01-30T01:47:59;102716.75;;;7.07;88.37
80188;BME280;73735;52.134;5.436;2024-01-30T01:50:25;102727.22;;;7.07;88.44
80188;BME280;73735;52.134;5.436;2024-01-30T01:52:52;102719.47;;;7.04;88.03
80188;BME280;73735;52.134;5.436;2024-01-30T01:55:21;102722.09;;;7.04;88.29
80188;BME280;73735;52.134;5.436;2024-01-30T01:57:48;102718.56;;;7.05;88.03
80188;BME280;73735;52.134;5.436;2024-01-30T02:00:15;102716.84;;;7.04;87.96
80188;BME280;73735;52.134;5.436;2024-01-30T02:02:42;102714.19;;;7.05;88.04
80188;BME280;73735;52.134;5.436;2024-01-30T02:05:09;102717.75;;;7.03;87.73
80188;BME280;73735;52.134;5.436;2024-01-30T02:07:36;102708.22;;;7.00;87.94
80188;BME280;73735;52.134;5.436;2024-01-30T02:10:04;102718.69;;;7.00;87.75
80188;BME280;73735;52.134;5.436;2024-01-30T02:12:30;102711.78;;;6.98;87.95
80188;BME280;73735;52.134;5.436;2024-01-30T02:14:57;102715.34;;;6.97;88.27
80188;BME280;73735;52.134;5.436;2024-01-30T02:17:24;102706.63;;;6.96;87.81
80188;BME280;73735;52.134;5.436;2024-01-30T02:19:50;102703.16;;;6.96;88.24
80188;BME280;73735;52.134;5.436;2024-01-30T02:22:17;102710.13;;;6.97;87.77
80188;BME280;73735;52.134;5.436;2024-01-30T02:24:44;102702.31;;;6.95;87.87
80188;BME280;73735;52.134;5.436;2024-01-30T02:27:11;102707.53;;;6.95;88.33
80188;BME280;73735;52.134;5.436;2024-01-30T02:29:37;102703.22;;;6.94;87.99
80188;BME280;73735;52.134;5.436;2024-01-30T02:32:04;102704.13;;;6.93;88.10
80188;BME280;73735;52.134;5.436;2024-01-30T02:34:32;102722.44;;;6.93;88.04
80188;BME280;73735;52.134;5.436;2024-01-30T02:36:58;102716.41;;;6.91;88.02
80188;BME280;73735;52.134;5.436;2024-01-30T02:39:25;102717.31;;;6.90;88.12
80188;BME280;73735;52.134;5.436;2024-01-30T02:41:51;102711.25;;;6.88;88.21
80188;BME280;73735;52.134;5.436;2024-01-30T02:44:18;102713.03;;;6.88;87.86
80188;BME280;73735;52.134;5.436;2024-01-30T02:46:44;102709.53;;;6.87;87.66
80188;BME280;73735;52.134;5.436;2024-01-30T02:49:10;102711.34;;;6.85;88.04
80188;BME280;73735;52.134;5.436;2024-01-30T02:51:37;102714.88;;;6.84;87.97
80188;BME280;73735;52.134;5.436;2024-01-30T02:54:04;102697.34;;;6.86;87.79
80188;BME280;73735;52.134;5.436;2024-01-30T02:56:30;102690.38;;;6.87;87.70
80188;BME280;73735;52.134;5.436;2024-01-30T02:58:57;102702.53;;;6.88;87.93
80188;BME280;73735;52.134;5.436;2024-01-30T03:01:23;102693.88;;;6.86;87.83
80188;BME280;73735;52.134;5.436;2024-01-30T03:03:50;102683.31;;;6.89;87.78
80188;BME280;73735;52.134;5.436;2024-01-30T03:06:17;102688.59;;;6.87;87.82
80188;BME280;73735;52.134;5.436;2024-01-30T03:08:46;102684.28;;;6.86;87.48
80188;BME280;73735;52.134;5.436;2024-01-30T03:11:12;102681.69;;;6.85;87.51
80188;BME280;73735;52.134;5.436;2024-01-30T03:13:39;102685.13;;;6.87;88.11
80188;BME280;73735;52.134;5.436;2024-01-30T03:16:05;102684.22;;;6.88;87.56
80188;BME280;73735;52.134;5.436;2024-01-30T03:18:32;102674.59;;;6.88;87.53
80188;BME280;73735;52.134;5.436;2024-01-30T03:20:59;102668.50;;;6.88;87.82
80188;BME280;73735;52.134;5.436;2024-01-30T03:23:25;102657.13;;;6.89;87.67
80188;BME280;73735;52.134;5.436;2024-01-30T03:25:51;102662.38;;;6.89;87.89
80188;BME280;73735;52.134;5.436;2024-01-30T03:28:18;102658.81;;;6.91;87.60
80188;BME280;73735;52.134;5.436;2024-01-30T03:30:44;102665.84;;;6.89;87.67
80188;BME280;73735;52.134;5.436;2024-01-30T03:33:11;102671.09;;;6.89;87.97
80188;BME280;73735;52.134;5.436;2024-01-30T03:35:37;102672.84;;;6.89;87.58
80188;BME280;73735;52.134;5.436;2024-01-30T03:38:04;102670.19;;;6.90;87.55
80188;BME280;73735;52.134;5.436;2024-01-30T03:40:30;102669.28;;;6.91;87.64
80188;BME280;73735;52.134;5.436;2024-01-30T03:42:57;102663.09;;;6.94;87.62
80188;BME280;73735;52.134;5.436;2024-01-30T03:45:24;102659.56;;;6.95;87.56
80188;BME280;73735;52.134;5.436;2024-01-30T03:47:50;102657.75;;;6.97;88.06
80188;BME280;73735;52.134;5.436;2024-01-30T03:50:17;102654.19;;;6.98;87.83
80188;BME280;73735;52.134;5.436;2024-01-30T03:52:43;102648.06;;;6.99;87.47
80188;BME280;73735;52.134;5.436;2024-01-30T03:55:10;102646.25;;;7.01;87.38
80188;BME280;73735;52.134;5.436;2024-01-30T03:57:36;102649.66;;;7.03;87.85
80188;BME280;73735;52.134;5.436;2024-01-30T04:00:03;102644.38;;;7.04;87.51
80188;BME280;73735;52.134;5.436;2024-01-30T04:02:31;102641.75;;;7.04;87.43
80188;BME280;73735;52.134;5.436;2024-01-30T04:04:57;102649.50;;;7.07;87.24
80188;BME280;73735;52.134;5.436;2024-01-30T04:07:25;102652.09;;;7.09;87.25
80188;BME280;73735;52.134;5.436;2024-01-30T04:09:51;102647.56;;;7.13;87.58
80188;BME280;73735;52.134;5.436;2024-01-30T04:12:18;102659.84;;;7.12;87.10
80188;BME280;73735;52.134;5.436;2024-01-30T04:14:44;102653.66;;;7.13;87.41
80188;BME280;73735;52.134;5.436;2024-01-30T04:17:11;102658.00;;;7.14;87.43
80188;BME280;73735;52.134;5.436;2024-01-30T04:19:37;102667.56;;;7.15;87.30
80188;BME280;73735;52.134;5.436;2024-01-30T04:22:05;102667.47;;;7.18;87.32
80188;BME280;73735;52.134;5.436;2024-01-30T04:24:31;102658.69;;;7.19;87.45
80188;BME280;73735;52.134;5.436;2024-01-30T04:26:58;102653.47;;;7.19;87.50
80188;BME280;73735;52.134;5.436;2024-01-30T04:29:24;102646.41;;;7.21;87.13
80188;BME280;73735;52.134;5.436;2024-01-30T04:31:51;102641.13;;;7.23;87.34
80188;BME280;73735;52.134;5.436;2024-01-30T04:34:17;102638.41;;;7.26;87.24
80188;BME280;73735;52.134;5.436;2024-01-30T04:36:44;102633.94;;;7.28;87.28
80188;BME280;73735;52.134;5.436;2024-01-30T04:39:11;102632.16;;;7.28;87.09
80188;BME280;73735;52.134;5.436;2024-01-30T04:41:39;102635.59;;;7.30;86.82
80188;BME280;73735;52.134;5.436;2024-01-30T04:44:06;102634.69;;;7.31;86.71
80188;BME280;73735;52.134;5.436;2024-01-30T04:46:33;102631.25;;;7.29;86.65
80188;BME280;73735;52.134;5.436;2024-01-30T04:49:00;102614.63;;;7.30;86.71
80188;BME280;73735;52.134;5.436;2024-01-30T04:51:27;102625.91;;;7.32;86.68
80188;BME280;73735;52.134;5.436;2024-01-30T04:53:53;102625.88;;;7.34;86.45
80188;BME280;73735;52.134;5.436;2024-01-30T04:56:20;102631.97;;;7.34;86.53
80188;BME280;73735;52.134;5.436;2024-01-30T04:58:46;102632.81;;;7.35;86.62
80188;BME280;73735;52.134;5.436;2024-01-30T05:01:17;102622.28;;;7.36;86.55
80188;BME280;73735;52.134;5.436;2024-01-30T05:03:44;102636.19;;;7.38;86.48
80188;BME280;73735;52.134;5.436;2024-01-30T05:06:10;102631.84;;;7.37;86.46
80188;BME280;73735;52.134;5.436;2024-01-30T05:08:37;102634.44;;;7.39;86.47
80188;BME280;73735;52.134;5.436;2024-01-30T05:11:06;102640.53;;;7.39;86.67
80188;BME280;73735;52.134;5.436;2024-01-30T05:13:33;102636.09;;;7.41;86.59
80188;BME280;73735;52.134;5.436;2024-01-30T05:16:02;102624.81;;;7.39;86.59
80188;BME280;73735;52.134;5.436;2024-01-30T05:18:29;102629.00;;;7.43;86.40
80188;BME280;73735;52.134;5.436;2024-01-30T05:20:56;102636.00;;;7.43;86.74
80188;BME280;73735;52.134;5.436;2024-01-30T05:23:22;102637.72;;;7.44;86.38
80188;BME280;73735;52.134;5.436;2024-01-30T05:25:49;102630.72;;;7.44;86.80
80188;BME280;73735;52.134;5.436;2024-01-30T05:28:15;102626.28;;;7.47;86.61
80188;BME280;73735;52.134;5.436;2024-01-30T05:30:41;102616.59;;;7.49;86.84
80188;BME280;73735;52.134;5.436;2024-01-30T05:33:08;102610.38;;;7.51;86.51
80188;BME280;73735;52.134;5.436;2024-01-30T05:35:36;102600.72;;;7.53;86.97
80188;BME280;73735;52.134;5.436;2024-01-30T05:38:02;102602.38;;;7.56;86.86
80188;BME280;73735;52.134;5.436;2024-01-30T05:40:32;102599.78;;;7.54;86.91
80188;BME280;73735;52.134;5.436;2024-01-30T05:42:59;102604.13;;;7.55;86.85
80188;BME280;73735;52.134;5.436;2024-01-30T05:45:27;102615.38;;;7.57;86.68
80188;BME280;73735;52.134;5.436;2024-01-30T05:47:53;102627.56;;;7.58;86.68
80188;BME280;73735;52.134;5.436;2024-01-30T05:50:20;102617.03;;;7.60;87.06
80188;BME280;73735;52.134;5.436;2024-01-30T05:52:49;102609.19;;;7.60;87.01
80188;BME280;73735;52.134;5.436;2024-01-30T05:55:16;102611.84;;;7.58;86.96
80188;BME280;73735;52.134;5.436;2024-01-30T05:57:42;102617.94;;;7.59;87.27
80188;BME280;73735;52.134;5.436;2024-01-30T06:00:09;102619.66;;;7.60;87.05
80188;BME280;73735;52.134;5.436;2024-01-30T06:02:35;102628.38;;;7.60;87.10
80188;BME280;73735;52.134;5.436;2024-01-30T06:05:02;102636.19;;;7.62;87.28
80188;BME280;73735;52.134;5.436;2024-01-30T06:07:29;102631.75;;;7.64;87.20
80188;BME280;73735;52.134;5.436;2024-01-30T06:10:01;102624.75;;;7.64;87.34
80188;BME280;73735;52.134;5.436;2024-01-30T06:12:29;102626.41;;;7.67;86.85
80188;BME280;73735;52.134;5.436;2024-01-30T06:14:55;102622.91;;;7.66;87.07
80188;BME280;73735;52.134;5.436;2024-01-30T06:17:23;102623.78;;;7.67;86.84
80188;BME280;73735;52.134;5.436;2024-01-30T06:19:50;102626.34;;;7.68;87.11
80188;BME280;73735;52.134;5.436;2024-01-30T06:22:16;102626.44;;;7.65;87.18
80188;BME280;73735;52.134;5.436;2024-01-30T06:24:43;102638.59;;;7.68;86.80
80188;BME280;73735;52.134;5.436;2024-01-30T06:27:11;102619.38;;;7.67;86.68
80188;BME280;73735;52.134;5.436;2024-01-30T06:29:38;102620.31;;;7.66;86.86
80188;BME280;73735;52.134;5.436;2024-01-30T06:32:04;102619.38;;;7.67;86.97
80188;BME280;73735;52.134;5.436;2024-01-30T06:34:31;102630.72;;;7.68;86.78
80188;BME280;73735;52.134;5.436;2024-01-30T06:36:58;102627.25;;;7.67;86.92
80188;BME280;73735;52.134;5.436;2024-01-30T06:39:24;102628.06;;;7.69;87.11
80188;BME280;73735;52.134;5.436;2024-01-30T06:41:51;102634.16;;;7.70;87.05
80188;BME280;73735;52.134;5.436;2024-01-30T06:44:17;102634.22;;;7.68;87.07
80188;BME280;73735;52.134;5.436;2024-01-30T06:46:44;102637.69;;;7.69;86.91
80188;BME280;73735;52.134;5.436;2024-01-30T06:49:10;102634.16;;;7.70;87.14
80188;BME280;73735;52.134;5.436;2024-01-30T06:51:37;102631.38;;;7.73;87.09
80188;BME280;73735;52.134;5.436;2024-01-30T06:54:04;102640.97;;;7.74;86.92
80188;BME280;73735;52.134;5.436;2024-01-30T06:56:30;102623.53;;;7.73;87.11
80188;BME280;73735;52.134;5.436;2024-01-30T06:58:57;102652.31;;;7.74;87.12
80188;BME280;73735;52.134;5.436;2024-01-30T07:01:29;102642.47;;;7.81;86.82
80188;BME280;73735;52.134;5.436;2024-01-30T07:03:57;102638.97;;;7.81;86.94
80188;BME280;73735;52.134;5.436;2024-01-30T07:06:24;102646.00;;;7.80;86.83
80188;BME280;73735;52.134;5.436;2024-01-30T07:08:50;102649.31;;;7.85;86.74
80188;BME280;73735;52.134;5.436;2024-01-30T07:11:20;102637.09;;;7.84;86.61
80188;BME280;73735;52.134;5.436;2024-01-30T07:13:50;102635.28;;;7.86;86.92
80188;BME280;73735;52.134;5.436;2024-01-30T07:16:17;102642.31;;;7.86;86.83
80188;BME280;73735;52.134;5.436;2024-01-30T07:18:44;102649.22;;;7.87;86.64
80188;BME280;73735;52.134;5.436;2024-01-30T07:21:12;102648.44;;;7.85;86.88
80188;BME280;73735;52.134;5.436;2024-01-30T07:23:38;102631.13;;;7.81;86.49
80188;BME280;73735;52.134;5.436;2024-01-30T07:26:05;102648.44;;;7.85;87.07
80188;BME280;73735;52.134;5.436;2024-01-30T07:28:33;102646.59;;;7.87;86.60
80188;BME280;73735;52.134;5.436;2024-01-30T07:31:00;102652.59;;;7.90;86.96
80188;BME280;73735;52.134;5.436;2024-01-30T07:33:27;102656.91;;;7.91;86.73
80188;BME280;73735;52.134;5.436;2024-01-30T07:35:53;102658.63;;;7.92;86.71
80188;BME280;73735;52.134;5.436;2024-01-30T07:38:20;102653.34;;;7.94;86.98
80188;BME280;73735;52.134;5.436;2024-01-30T07:40:46;102660.19;;;7.98;87.14
80188;BME280;73735;52.134;5.436;2024-01-30T07:43:13;102664.56;;;7.97;87.19
80188;BME280;73735;52.134;5.436;2024-01-30T07:45:39;102665.31;;;8.01;86.96
80188;BME280;73735;52.134;5.436;2024-01-30T07:48:06;102663.47;;;8.03;87.12
80188;BME280;73735;52.134;5.436;2024-01-30T07:50:33;102669.56;;;8.03;87.22
80188;BME280;73735;52.134;5.436;2024-01-30T07:53:00;102672.06;;;8.06;87.28
80188;BME280;73735;52.134;5.436;2024-01-30T07:55:26;102678.13;;;8.08;87.12
80188;BME280;73735;52.134;5.436;2024-01-30T07:57:58;102683.25;;;8.11;87.02
80188;BME280;73735;52.134;5.436;2024-01-30T08:00:26;102683.16;;;8.14;87.20
80188;BME280;73735;52.134;5.436;2024-01-30T08:02:53;102680.47;;;8.16;87.10
80188;BME280;73735;52.134;5.436;2024-01-30T08:05:21;102683.81;;;8.20;86.88
80188;BME280;73735;52.134;5.436;2024-01-30T08:07:49;102684.59;;;8.22;86.83
80188;BME280;73735;52.134;5.436;2024-01-30T08:10:16;102681.00;;;8.24;87.04
80188;BME280;73735;52.134;5.436;2024-01-30T08:12:44;102691.38;;;8.27;86.96
80188;BME280;73735;52.134;5.436;2024-01-30T08:15:11;102685.06;;;8.33;87.01
80188;BME280;73735;52.134;5.436;2024-01-30T08:17:39;102678.78;;;8.37;86.75
80188;BME280;73735;52.134;5.436;2024-01-30T08:20:06;102676.84;;;8.42;87.01
80188;BME280;73735;52.134;5.436;2024-01-30T08:22:33;102681.97;;;8.45;87.21
80188;BME280;73735;52.134;5.436;2024-01-30T08:25:00;102681.72;;;8.51;86.98
80188;BME280;73735;52.134;5.436;2024-01-30T08:27:27;102681.59;;;8.54;87.25
80188;BME280;73735;52.134;5.436;2024-01-30T08:29:53;102687.66;;;8.56;87.27
80188;BME280;73735;52.134;5.436;2024-01-30T08:32:19;102685.72;;;8.81;86.61
80188;BME280;73735;52.134;5.436;2024-01-30T08:34:46;102695.06;;;9.09;85.61
80188;BME280;73735;52.134;5.436;2024-01-30T08:37:13;102683.03;;;9.24;84.69
80188;BME280;73735;52.134;5.436;2024-01-30T08:39:43;102681.13;;;9.47;84.00
80188;BME280;73735;52.134;5.436;2024-01-30T08:42:10;102677.59;;;9.67;83.41
80188;BME280;73735;52.134;5.436;2024-01-30T08:44:37;102684.69;;;9.65;83.27
80188;BME280;73735;52.134;5.436;2024-01-30T08:47:04;102673.19;;;9.68;82.90
80188;BME280;73735;52.134;5.436;2024-01-30T08:49:31;102687.13;;;9.70;83.10
80188;BME280;73735;52.134;5.436;2024-01-30T08:51:58;102677.19;;;9.76;83.23
80188;BME280;73735;52.134;5.436;2024-01-30T08:54:25;102683.03;;;9.64;83.81
80188;BME280;73735;52.134;5.436;2024-01-30T08:56:51;102679.31;;;9.49;84.52
80188;BME280;73735;52.134;5.436;2024-01-30T08:59:19;102684.75;;;9.45;85.26
80188;BME280;73735;52.134;5.436;2024-01-30T09:01:45;102695.41;;;9.42;85.76
80188;BME280;73735;52.134;5.436;2024-01-30T09:04:28;102695.34;;;9.43;86.14
80188;BME280;73735;52.134;5.436;2024-01-30T09:06:55;102693.28;;;9.50;86.50
80188;BME280;73735;52.134;5.436;2024-01-30T09:09:22;102686.91;;;9.55;86.48
80188;BME280;73735;52.134;5.436;2024-01-30T09:11:48;102678.94;;;9.57;86.48
80188;BME280;73735;52.134;5.436;2024-01-30T09:14:15;102688.28;;;9.64;86.59
80188;BME280;73735;52.134;5.436;2024-01-30T09:16:41;102689.69;;;9.71;86.67
80188;BME280;73735;52.134;5.436;2024-01-30T09:19:08;102684.25;;;9.76;86.75
80188;BME280;73735;52.134;5.436;2024-01-30T09:21:34;102692.63;;;9.84;86.55
80188;BME280;73735;52.134;5.436;2024-01-30T09:24:02;102695.00;;;9.90;86.50
80188;BME280;73735;52.134;5.436;2024-01-30T09:26:32;102702.75;;;9.93;86.25
80188;BME280;73735;52.134;5.436;2024-01-30T09:28:58;102710.22;;;10.02;85.87
80188;BME280;73735;52.134;5.436;2024-01-30T09:31:25;102711.00;;;10.04;85.98
80188;BME280;73735;52.134;5.436;2024-01-30T09:33:51;102711.84;;;10.05;85.62
80188;BME280;73735;52.134;5.436;2024-01-30T09:36:20;102705.66;;;10.06;85.79
80188;BME280;73735;52.134;5.436;2024-01-30T09:38:47;102706.28;;;10.11;85.73
80188;BME280;73735;52.134;5.436;2024-01-30T09:41:14;102709.50;;;10.17;85.31
80188;BME280;73735;52.134;5.436;2024-01-30T09:43:41;102708.59;;;10.18;85.29
80188;BME280;73735;52.134;5.436;2024-01-30T09:46:12;102702.41;;;10.19;85.24
80188;BME280;73735;52.134;5.436;2024-01-30T09:48:41;102712.94;;;10.19;85.18
80188;BME280;73735;52.134;5.436;2024-01-30T09:51:09;102716.44;;;10.20;85.14
80188;BME280;73735;52.134;5.436;2024-01-30T09:53:36;102719.06;;;10.20;84.78
80188;BME280;73735;52.134;5.436;2024-01-30T09:56:04;102720.00;;;10.19;84.61
80188;BME280;73735;52.134;5.436;2024-01-30T09:58:31;102712.94;;;10.19;84.87
80188;BME280;73735;52.134;5.436;2024-01-30T10:00:58;102718.06;;;10.22;84.73
80188;BME280;73735;52.134;5.436;2024-01-30T10:03:25;102722.31;;;10.25;84.67
80188;BME280;73735;52.134;5.436;2024-01-30T10:05:52;102722.31;;;10.25;84.81
80188;BME280;73735;52.134;5.436;2024-01-30T10:08:19;102726.72;;;10.24;84.45
80188;BME280;73735;52.134;5.436;2024-01-30T10:10:49;102732.94;;;10.23;84.93
80188;BME280;73735;52.134;5.436;2024-01-30T10:13:16;102719.63;;;10.27;84.59
80188;BME280;73735;52.134;5.436;2024-01-30T10:15:44;102718.69;;;10.28;84.65
80188;BME280;73735;52.134;5.436;2024-01-30T10:18:11;102719.53;;;10.28;84.52
80188;BME280;73735;52.134;5.436;2024-01-30T10:20:37;102723.97;;;10.28;84.59
80188;BME280;73735;52.134;5.436;2024-01-30T10:23:04;102731.00;;;10.27;84.70
80188;BME280;73735;52.134;5.436;2024-01-30T10:25:31;102731.78;;;10.29;84.82
80188;BME280;73735;52.134;5.436;2024-01-30T10:27:58;102720.13;;;10.35;84.49
80188;BME280;73735;52.134;5.436;2024-01-30T10:30:25;102716.31;;;10.40;84.19
80188;BME280;73735;52.134;5.436;2024-01-30T10:32:51;102717.81;;;10.46;84.05
80188;BME280;73735;52.134;5.436;2024-01-30T10:35:18;102725.44;;;10.52;84.22
80188;BME280;73735;52.134;5.436;2024-01-30T10:37:48;102732.19;;;10.57;83.96
80188;BME280;73735;52.134;5.436;2024-01-30T10:40:15;102736.44;;;10.60;83.83
80188;BME280;73735;52.134;5.436;2024-01-30T10:42:44;102718.53;;;10.68;83.66
80188;BME280;73735;52.134;5.436;2024-01-30T10:45:12;102719.13;;;10.73;83.50
80188;BME280;73735;52.134;5.436;2024-01-30T10:47:42;102722.63;;;10.74;83.24
80188;BME280;73735;52.134;5.436;2024-01-30T10:50:10;102728.72;;;10.74;83.01
80188;BME280;73735;52.134;5.436;2024-01-30T10:52:37;102735.78;;;10.74;83.09
80188;BME280;73735;52.134;5.436;2024-01-30T10:55:05;102729.66;;;10.73;83.38
80188;BME280;73735;52.134;5.436;2024-01-30T10:57:35;102734.94;;;10.73;82.75
80188;BME280;73735;52.134;5.436;2024-01-30T11:00:10;102725.31;;;10.72;82.79
80188;BME280;73735;52.134;5.436;2024-01-30T11:02:43;102729.38;;;10.79;82.33
80188;BME280;73735;52.134;5.436;2024-01-30T11:05:10;102725.75;;;10.82;81.98
80188;BME280;73735;52.134;5.436;2024-01-30T11:07:39;102736.19;;;10.83;81.36
80188;BME280;73735;52.134;5.436;2024-01-30T11:10:08;102740.31;;;10.89;81.10
80188;BME280;73735;52.134;5.436;2024-01-30T11:12:39;102743.50;;;10.95;80.37
80188;BME280;73735;52.134;5.436;2024-01-30T11:15:13;102735.66;;;10.94;80.77
80188;BME280;73735;52.134;5.436;2024-01-30T11:20:19;102744.81;;;11.04;80.71
80188;BME280;73735;52.134;5.436;2024-01-30T11:22:47;102740.31;;;11.06;80.48
80188;BME280;73735;52.134;5.436;2024-01-30T11:25:15;102746.47;;;11.07;80.47
80188;BME280;73735;52.134;5.436;2024-01-30T11:27:43;102744.69;;;11.07;80.24
80188;BME280;73735;52.134;5.436;2024-01-30T11:30:10;102748.31;;;11.05;80.34
80188;BME280;73735;52.134;5.436;2024-01-30T11:32:37;102744.81;;;11.04;80.37
80188;BME280;73735;52.134;5.436;2024-01-30T11:35:05;102753.59;;;11.05;80.09
80188;BME280;73735;52.134;5.436;2024-01-30T11:37:36;102755.50;;;11.01;79.18
80188;BME280;73735;52.134;5.436;2024-01-30T11:40:04;102758.41;;;10.97;78.89
80188;BME280;73735;52.134;5.436;2024-01-30T11:42:31;102757.63;;;10.94;78.32
80188;BME280;73735;52.134;5.436;2024-01-30T11:45:00;102767.59;;;10.88;77.78
80188;BME280;73735;52.134;5.436;2024-01-30T11:47:27;102770.34;;;10.85;77.98
80188;BME280;73735;52.134;5.436;2024-01-30T11:49:54;102773.25;;;10.80;77.51
80188;BME280;73735;52.134;5.436;2024-01-30T11:52:25;102773.53;;;10.74;77.63
80188;BME280;73735;52.134;5.436;2024-01-30T11:54:51;102771.09;;;10.70;77.37
80188;BME280;73735;52.134;5.436;2024-01-30T11:57:18;102779.38;;;10.62;77.42
80188;BME280;73735;52.134;5.436;2024-01-30T11:59:44;102766.41;;;10.57;77.49
80188;BME280;73735;52.134;5.436;2024-01-30T12:02:15;102772.84;;;10.52;77.58
80188;BME280;73735;52.134;5.436;2024-01-30T12:04:42;102772.84;;;10.52;77.66
80188;BME280;73735;52.134;5.436;2024-01-30T12:07:09;102770.97;;;10.54;77.62
80188;BME280;73735;52.134;5.436;2024-01-30T12:09:36;102778.88;;;10.54;77.37
80188;BME280;73735;52.134;5.436;2024-01-30T12:12:02;102779.13;;;10.49;77.13
80188;BME280;73735;52.134;5.436;2024-01-30T12:14:29;102784.38;;;10.49;77.32
80188;BME280;73735;52.134;5.436;2024-01-30T12:16:56;102789.72;;;10.48;77.06
80188;BME280;73735;52.134;5.436;2024-01-30T12:19:25;102785.50;;;10.44;76.94
80188;BME280;73735;52.134;5.436;2024-01-30T12:21:58;102789.19;;;10.40;76.55
80188;BME280;73735;52.134;5.436;2024-01-30T12:24:26;102791.75;;;10.41;77.10
80188;BME280;73735;52.134;5.436;2024-01-30T12:26:57;102797.34;;;10.35;76.73
80188;BME280;73735;52.134;5.436;2024-01-30T12:29:24;102804.44;;;10.33;76.70
80188;BME280;73735;52.134;5.436;2024-01-30T12:31:54;102813.53;;;10.26;76.79
80188;BME280;73735;52.134;5.436;2024-01-30T12:34:21;102833.16;;;10.19;77.00
80188;BME280;73735;52.134;5.436;2024-01-30T12:36:48;102838.78;;;10.10;77.20
80188;BME280;73735;52.134;5.436;2024-01-30T12:39:15;102847.16;;;9.99;77.40
80188;BME280;73735;52.134;5.436;2024-01-30T12:41:42;102843.09;;;9.92;77.53
80188;BME280;73735;52.134;5.436;2024-01-30T12:44:08;102829.22;;;9.88;77.83
80188;BME280;73735;52.134;5.436;2024-01-30T12:46:35;102835.59;;;9.83;77.39
80188;BME280;73735;52.134;5.436;2024-01-30T12:49:01;102838.16;;;9.84;77.32
80188;BME280;73735;52.134;5.436;2024-01-30T12:51:28;102837.38;;;9.82;76.93
80188;BME280;73735;52.134;5.436;2024-01-30T12:53:55;102825.06;;;9.83;77.13
80188;BME280;73735;52.134;5.436;2024-01-30T12:56:22;102839.03;;;9.85;76.98
80188;BME280;73735;52.134;5.436;2024-01-30T12:58:48;102844.34;;;9.83;76.85